Airport View

Enter AWOS ICAO identifier for current METAR.

ex. KFNL

KRRT 191835Z AUTO 08004KT 10SM CLR 23/09 A2985 RMK AO2

19 Jun 2019 18:51

Frequency: 119.925

Phone: 218-386-1813

Other Area AWOS: KROX - KFGN - KBDE - KVWU

TAF KTVF 191737Z 1918/2018 11011KT P6SM SCT060 SCT200 FM192100 12011KT P6SM SCT060 BKN150 FM200200 11011KT P6SM BKN150 FM201700 13017KT P6SM BKN150